createdAt,value
2023-05-24T00:01:03.142Z,17.90
2023-05-24T00:03:39.603Z,17.87
2023-05-24T00:06:12.683Z,17.83
2023-05-24T00:08:45.563Z,17.81
2023-05-24T00:11:18.297Z,17.78
2023-05-24T00:13:51.212Z,17.75
2023-05-24T00:16:24.723Z,17.73
2023-05-24T00:18:59.365Z,17.71
2023-05-24T00:21:32.245Z,17.67
2023-05-24T00:24:05.102Z,17.66
2023-05-24T00:26:38.009Z,17.62
2023-05-24T00:29:11.000Z,17.61
2023-05-24T00:31:43.844Z,17.60
2023-05-24T00:34:18.641Z,17.59
2023-05-24T00:36:51.640Z,17.58
2023-05-24T00:39:24.465Z,17.56
2023-05-24T00:41:57.327Z,17.56
2023-05-24T00:44:30.669Z,17.54
2023-05-24T00:47:03.475Z,17.55
2023-05-24T00:49:38.282Z,17.54
2023-05-24T00:52:11.446Z,17.53
2023-05-24T00:54:44.624Z,17.54
2023-05-24T00:57:19.376Z,17.54
2023-05-24T00:59:52.575Z,17.56
2023-05-24T01:02:26.108Z,17.57
2023-05-24T01:05:00.563Z,17.58
2023-05-24T01:07:39.517Z,17.60
2023-05-24T01:10:16.921Z,17.61
2023-05-24T01:12:54.919Z,17.63
2023-05-24T01:15:31.969Z,17.65
2023-05-24T01:18:07.981Z,17.65
2023-05-24T01:20:43.638Z,17.69
2023-05-24T01:23:20.874Z,17.70
2023-05-24T01:26:10.671Z,17.71
2023-05-24T01:28:45.484Z,17.73
2023-05-24T01:31:19.497Z,17.76
2023-05-24T01:33:52.808Z,17.77
2023-05-24T01:36:25.654Z,17.79
2023-05-24T01:38:58.602Z,17.81
2023-05-24T01:41:38.052Z,17.80
2023-05-24T01:44:17.056Z,17.82
2023-05-24T01:46:55.299Z,17.80
2023-05-24T01:49:31.546Z,17.79
2023-05-24T01:52:06.713Z,17.77
2023-05-24T01:54:40.826Z,17.74
2023-05-24T01:57:14.292Z,17.69
2023-05-24T01:59:49.131Z,17.66
2023-05-24T02:02:21.939Z,17.62
2023-05-24T02:04:55.410Z,17.58
2023-05-24T02:07:28.491Z,17.54
2023-05-24T02:10:01.250Z,17.49
2023-05-24T02:12:34.137Z,17.46
2023-05-24T02:15:09.368Z,17.43
2023-05-24T02:17:42.925Z,17.39
2023-05-24T02:20:17.541Z,17.36
2023-05-24T02:22:50.633Z,17.32
2023-05-24T02:25:23.638Z,17.29
2023-05-24T02:27:56.698Z,17.28
2023-05-24T02:30:30.843Z,17.27
2023-05-24T02:33:03.720Z,17.23
2023-05-24T02:35:36.587Z,17.20
2023-05-24T02:38:10.350Z,17.16
2023-05-24T02:40:43.339Z,17.11
2023-05-24T02:43:16.314Z,17.04
2023-05-24T02:45:51.441Z,16.94
2023-05-24T02:48:24.503Z,16.87
2023-05-24T02:50:57.631Z,16.78
2023-05-24T02:53:31.752Z,16.70
2023-05-24T02:56:04.686Z,16.66
2023-05-24T02:58:40.604Z,16.62
2023-05-24T03:01:15.598Z,16.56
2023-05-24T03:03:48.782Z,16.52
2023-05-24T03:06:24.113Z,16.46
2023-05-24T03:08:57.079Z,16.43
2023-05-24T03:11:29.953Z,16.40
2023-05-24T03:14:02.702Z,16.37
2023-05-24T03:16:37.519Z,16.34
2023-05-24T03:19:10.626Z,16.31
2023-05-24T03:21:43.752Z,16.28
2023-05-24T03:24:16.694Z,16.27
2023-05-24T03:26:50.051Z,16.22
2023-05-24T03:29:23.470Z,16.23
2023-05-24T03:31:58.103Z,16.20
2023-05-24T03:34:32.037Z,16.17
2023-05-24T03:37:05.805Z,16.14
2023-05-24T03:39:39.133Z,16.13
2023-05-24T03:42:12.051Z,16.13
2023-05-24T03:44:45.205Z,16.10
2023-05-24T03:47:19.583Z,16.07
2023-05-24T03:49:52.485Z,16.07
2023-05-24T03:52:25.795Z,16.07
2023-05-24T03:54:58.958Z,16.06
2023-05-24T03:57:32.656Z,16.06
2023-05-24T04:00:07.230Z,16.07
2023-05-24T04:02:44.199Z,16.09
2023-05-24T04:05:17.110Z,16.09
2023-05-24T04:07:50.246Z,16.07
2023-05-24T04:10:24.221Z,16.08
2023-05-24T04:12:57.833Z,16.08
2023-05-24T04:15:31.126Z,16.09
2023-05-24T04:18:05.543Z,16.10
2023-05-24T04:20:38.768Z,16.09
2023-05-24T04:23:13.237Z,16.12
2023-05-24T04:25:46.229Z,16.11
2023-05-24T04:28:19.015Z,16.13
2023-05-24T04:30:52.401Z,16.12
2023-05-24T04:33:27.963Z,16.13
2023-05-24T04:36:02.259Z,16.13
2023-05-24T04:38:36.499Z,16.11
2023-05-24T04:41:09.568Z,16.11
2023-05-24T04:43:44.006Z,16.10
2023-05-24T04:46:17.324Z,16.10
2023-05-24T04:48:52.037Z,16.12
2023-05-24T04:51:25.317Z,16.15
2023-05-24T04:53:58.136Z,16.16
2023-05-24T04:56:31.335Z,16.18
2023-05-24T04:59:04.682Z,16.22
2023-05-24T05:01:37.566Z,16.23
2023-05-24T05:04:12.196Z,16.26
2023-05-24T05:06:45.411Z,16.27
2023-05-24T05:09:19.529Z,16.28
2023-05-24T05:11:52.467Z,16.29
2023-05-24T05:14:25.633Z,16.30
2023-05-24T05:16:59.528Z,16.31
2023-05-24T05:19:33.808Z,16.31
2023-05-24T05:22:07.178Z,16.30
2023-05-24T05:24:40.324Z,16.29
2023-05-24T05:27:13.205Z,16.29
2023-05-24T05:29:46.083Z,16.27
2023-05-24T05:32:19.335Z,16.25
2023-05-24T05:34:53.699Z,16.21
2023-05-24T05:37:26.531Z,16.17
2023-05-24T05:39:59.571Z,16.14
2023-05-24T05:42:32.665Z,16.10
2023-05-24T05:45:05.920Z,16.09
2023-05-24T05:47:38.759Z,16.07
2023-05-24T05:50:13.114Z,16.04
2023-05-24T05:52:45.985Z,16.03
2023-05-24T05:55:20.897Z,16.01
2023-05-24T05:57:54.142Z,16.01
2023-05-24T06:00:27.242Z,16.01
2023-05-24T06:03:00.752Z,16.02
2023-05-24T06:05:38.045Z,16.04
2023-05-24T06:08:10.922Z,16.06
2023-05-24T06:10:44.646Z,16.09
2023-05-24T06:13:17.712Z,16.09
2023-05-24T06:15:52.898Z,16.10
2023-05-24T06:18:26.808Z,16.13
2023-05-24T06:21:01.726Z,16.14
2023-05-24T06:23:34.628Z,16.16
2023-05-24T06:26:10.209Z,16.19
2023-05-24T06:28:43.832Z,16.22
2023-05-24T06:41:51.490Z,16.42
2023-05-24T06:44:31.437Z,16.46
2023-05-24T06:47:04.563Z,16.51
2023-05-24T06:49:37.310Z,16.57
2023-05-24T06:52:10.557Z,16.62
2023-05-24T06:54:43.737Z,16.69
2023-05-24T06:57:18.187Z,16.76
2023-05-24T06:59:51.017Z,16.83
2023-05-24T07:02:27.969Z,16.88
2023-05-24T07:05:01.121Z,16.91
2023-05-24T07:07:34.068Z,16.97
2023-05-24T07:10:08.744Z,17.04
2023-05-24T07:12:42.998Z,17.09
2023-05-24T07:15:15.996Z,17.17
2023-05-24T07:17:49.467Z,17.22
2023-05-24T07:20:22.446Z,17.31
2023-05-24T07:22:55.734Z,17.38
2023-05-24T07:25:28.876Z,17.45
2023-05-24T07:28:03.094Z,17.54
2023-05-24T07:30:36.210Z,17.58
2023-05-24T07:33:09.289Z,17.63
2023-05-24T07:35:42.620Z,17.65
2023-05-24T07:38:16.240Z,17.68
2023-05-24T07:40:49.230Z,17.71
2023-05-24T07:43:23.587Z,17.74
2023-05-24T07:45:56.510Z,17.80
2023-05-24T07:48:29.504Z,17.83
2023-05-24T07:51:02.210Z,17.87
2023-05-24T07:53:35.941Z,17.89
2023-05-24T07:56:10.075Z,17.90
2023-05-24T07:58:46.877Z,17.89
2023-05-24T08:01:20.205Z,17.87
2023-05-24T08:03:53.498Z,17.85
2023-05-24T08:06:26.650Z,17.82
2023-05-24T08:08:59.417Z,17.78
2023-05-24T08:11:32.413Z,17.75
2023-05-24T08:14:06.475Z,17.73
2023-05-24T08:16:39.406Z,17.73
2023-05-24T08:19:12.579Z,17.73
2023-05-24T08:21:45.456Z,17.70
2023-05-24T08:24:18.350Z,17.70
2023-05-24T08:26:51.925Z,17.68
2023-05-24T08:29:26.338Z,17.70
2023-05-24T08:31:59.093Z,17.70
2023-05-24T08:34:32.010Z,17.70
2023-05-24T08:37:05.284Z,17.70
2023-05-24T08:39:38.144Z,17.70
2023-05-24T08:42:11.090Z,17.66
2023-05-24T08:44:48.428Z,17.60
2023-05-24T08:47:21.671Z,17.57
2023-05-24T08:49:55.088Z,17.50
2023-05-24T08:52:28.879Z,17.45
2023-05-24T08:55:01.789Z,17.40
2023-05-24T08:57:35.867Z,17.36
2023-05-24T09:00:13.215Z,17.31
2023-05-24T09:02:47.230Z,17.26
2023-05-24T09:05:22.280Z,17.21
2023-05-24T09:07:57.048Z,17.16
2023-05-24T09:10:41.258Z,17.11
2023-05-24T09:13:24.045Z,17.05
2023-05-24T09:15:59.034Z,17.03
2023-05-24T09:18:31.819Z,17.00
2023-05-24T09:21:04.659Z,17.00
2023-05-24T09:23:37.800Z,17.03
2023-05-24T09:26:11.607Z,17.09
2023-05-24T09:28:44.628Z,17.15
2023-05-24T09:31:18.888Z,17.20
2023-05-24T09:33:51.684Z,17.25
2023-05-24T09:36:24.566Z,17.34
2023-05-24T09:39:07.422Z,17.44
2023-05-24T09:41:40.817Z,17.53
2023-05-24T09:44:14.579Z,17.62
2023-05-24T09:46:48.834Z,17.71
2023-05-24T09:49:22.406Z,17.80
2023-05-24T09:51:55.699Z,17.86
2023-05-24T09:54:28.699Z,17.91
2023-05-24T09:57:03.435Z,17.97
2023-05-24T09:59:41.050Z,18.00
2023-05-24T10:02:18.548Z,18.02
2023-05-24T10:04:58.584Z,18.03
2023-05-24T10:07:31.784Z,18.03
2023-05-24T10:10:07.501Z,18.04
2023-05-24T10:12:44.096Z,18.06
2023-05-24T10:15:17.221Z,18.08
2023-05-24T10:17:52.096Z,18.11
2023-05-24T10:20:25.118Z,18.15
2023-05-24T10:23:00.923Z,18.15
2023-05-24T10:25:34.496Z,18.18
2023-05-24T10:28:10.080Z,18.18
2023-05-24T10:30:45.450Z,18.18
2023-05-24T10:33:21.216Z,18.19
2023-05-24T10:35:54.138Z,18.18
2023-05-24T10:38:27.041Z,18.18
2023-05-24T10:40:59.902Z,18.18
2023-05-24T10:43:32.816Z,18.18
2023-05-24T10:46:06.150Z,18.20
2023-05-24T10:48:41.409Z,18.18
2023-05-24T10:51:31.085Z,18.19
2023-05-24T10:54:14.243Z,18.18
2023-05-24T10:56:48.094Z,18.14
2023-05-24T10:59:39.369Z,18.14
2023-05-24T11:02:14.155Z,18.13
2023-05-24T11:04:49.568Z,18.14
2023-05-24T11:07:22.644Z,18.16
2023-05-24T11:09:59.838Z,18.19
2023-05-24T11:12:38.683Z,18.24
2023-05-24T11:15:12.227Z,18.31
2023-05-24T11:18:03.523Z,18.40
2023-05-24T11:20:38.018Z,18.47
2023-05-24T11:23:11.632Z,18.56
2023-05-24T11:25:44.553Z,18.61
2023-05-24T11:28:17.812Z,18.71
2023-05-24T11:30:50.820Z,18.79
2023-05-24T11:33:25.086Z,18.91
2023-05-24T11:36:00.085Z,19.00
2023-05-24T11:38:32.876Z,19.10
2023-05-24T11:41:07.558Z,19.16
2023-05-24T11:43:41.401Z,19.22
2023-05-24T11:46:14.195Z,19.26
2023-05-24T11:48:55.729Z,19.29
2023-05-24T11:51:30.450Z,19.35
2023-05-24T11:54:03.193Z,19.40
2023-05-24T11:56:36.055Z,19.45
2023-05-24T11:59:15.660Z,19.52
2023-05-24T12:01:48.440Z,19.61
2023-05-24T12:04:21.300Z,19.70
2023-05-24T12:06:56.334Z,19.78
2023-05-24T12:09:29.455Z,19.89
2023-05-24T12:12:02.530Z,20.00
2023-05-24T12:14:37.444Z,20.10
2023-05-24T12:17:16.135Z,20.21
2023-05-24T12:19:49.953Z,20.37
2023-05-24T12:22:27.984Z,20.52
2023-05-24T12:25:00.680Z,20.66
2023-05-24T12:27:34.800Z,20.78
2023-05-24T12:30:09.974Z,20.91
2023-05-24T12:32:42.693Z,21.07
2023-05-24T12:35:15.497Z,21.20
2023-05-24T12:37:49.829Z,21.34
2023-05-24T12:40:23.688Z,21.49
2023-05-24T12:42:57.980Z,21.61
2023-05-24T12:45:30.670Z,21.73
2023-05-24T12:48:05.100Z,21.81
2023-05-24T12:50:37.903Z,21.92
2023-05-24T12:53:12.054Z,21.99
2023-05-24T12:55:44.833Z,22.07
2023-05-24T12:58:19.900Z,22.08
2023-05-24T13:00:52.694Z,22.12
2023-05-24T13:03:25.551Z,22.15
2023-05-24T13:05:59.499Z,22.19
2023-05-24T13:08:34.060Z,22.23
2023-05-24T13:11:06.909Z,22.27
2023-05-24T13:13:39.727Z,22.28
2023-05-24T13:16:12.558Z,22.28
2023-05-24T13:18:46.424Z,22.26
2023-05-24T13:21:19.190Z,22.20
2023-05-24T13:23:53.316Z,22.13
2023-05-24T13:26:26.030Z,22.04
2023-05-24T13:29:27.861Z,21.92
2023-05-24T13:31:51.765Z,21.75
2023-05-24T13:34:24.760Z,21.60
2023-05-24T13:36:59.954Z,21.46
2023-05-24T13:39:35.402Z,21.31
2023-05-24T13:42:09.106Z,21.17
2023-05-24T13:44:41.930Z,21.05
2023-05-24T13:47:27.159Z,20.89
2023-05-24T13:50:00.731Z,20.76
2023-05-24T13:52:33.868Z,20.66
2023-05-24T13:55:08.978Z,20.54
2023-05-24T13:57:50.413Z,20.46
2023-05-24T14:00:24.719Z,20.38
2023-05-24T14:02:58.077Z,20.32
2023-05-24T14:05:31.344Z,20.26
2023-05-24T14:08:06.768Z,20.23
2023-05-24T14:10:41.340Z,20.20
2023-05-24T14:13:23.181Z,20.18
2023-05-24T14:16:07.243Z,20.16
2023-05-24T14:18:40.033Z,20.16
2023-05-24T14:21:12.906Z,20.15
2023-05-24T14:23:45.692Z,20.15
2023-05-24T14:26:20.481Z,20.19
2023-05-24T14:28:55.950Z,20.22
2023-05-24T14:31:29.683Z,20.26
2023-05-24T14:34:02.786Z,20.33
2023-05-24T14:36:36.013Z,20.38
2023-05-24T14:39:09.156Z,20.43
2023-05-24T14:41:43.357Z,20.48
2023-05-24T14:44:16.037Z,20.54
2023-05-24T14:46:49.028Z,20.59
2023-05-24T14:49:21.658Z,20.65
2023-05-24T14:51:54.424Z,20.72
2023-05-24T14:54:27.402Z,20.78
2023-05-24T14:57:02.524Z,20.84
2023-05-24T14:59:35.279Z,20.89
2023-05-24T15:02:08.283Z,20.95
2023-05-24T15:04:41.083Z,21.00
2023-05-24T15:07:14.150Z,21.06
2023-05-24T15:09:46.911Z,21.10
2023-05-24T15:12:21.041Z,21.14
2023-05-24T15:14:53.827Z,21.16
2023-05-24T15:17:26.669Z,21.17
2023-05-24T15:19:59.876Z,21.17
2023-05-24T15:22:34.014Z,21.15
2023-05-24T15:25:07.413Z,21.10
2023-05-24T15:27:41.609Z,21.06
2023-05-24T15:30:14.556Z,21.00
2023-05-24T15:32:47.697Z,20.92
2023-05-24T15:35:21.066Z,20.84
2023-05-24T15:37:53.970Z,20.74
2023-05-24T15:40:26.827Z,20.64
2023-05-24T15:43:01.047Z,20.54
2023-05-24T15:45:33.892Z,20.43
2023-05-24T15:48:06.846Z,20.32
2023-05-24T15:51:01.803Z,20.21
2023-05-24T15:53:32.578Z,20.13
2023-05-24T15:56:05.414Z,20.02
2023-05-24T15:58:39.580Z,19.96
2023-05-24T16:01:12.453Z,19.90
2023-05-24T16:03:45.312Z,19.83
2023-05-24T16:06:18.172Z,19.79
2023-05-24T16:08:51.273Z,19.75
2023-05-24T16:11:24.146Z,19.72
2023-05-24T16:13:58.867Z,19.67
2023-05-24T16:16:31.701Z,19.61
2023-05-24T16:19:04.540Z,19.55
2023-05-24T16:21:37.311Z,19.48
2023-05-24T16:24:10.277Z,19.40
2023-05-24T16:26:43.036Z,19.33
2023-05-24T16:29:18.844Z,19.24
2023-05-24T16:31:52.052Z,19.16
2023-05-24T16:34:26.135Z,19.11
2023-05-24T16:36:58.831Z,19.04
2023-05-24T16:39:32.699Z,18.97
2023-05-24T16:42:07.213Z,18.89
2023-05-24T16:44:41.304Z,18.82
2023-05-24T16:47:14.057Z,18.77
2023-05-24T16:49:46.814Z,18.71
2023-05-24T16:52:19.506Z,18.67
2023-05-24T16:54:52.376Z,18.64
2023-05-24T16:57:25.094Z,18.60
2023-05-24T16:59:59.220Z,18.57
2023-05-24T17:02:31.986Z,18.53
2023-05-24T17:05:04.917Z,18.49
2023-05-24T17:07:37.908Z,18.45
2023-05-24T17:10:10.848Z,18.42
2023-05-24T17:12:43.590Z,18.41
2023-05-24T17:15:17.931Z,18.36
2023-05-24T17:17:52.717Z,18.34
2023-05-24T17:20:25.806Z,18.30
2023-05-24T17:22:58.529Z,18.27
2023-05-24T17:25:31.355Z,18.27
2023-05-24T17:28:04.440Z,18.25
2023-05-24T17:30:38.518Z,18.23
2023-05-24T17:33:11.556Z,18.23
2023-05-24T17:35:44.390Z,18.22
2023-05-24T17:38:17.270Z,18.21
2023-05-24T17:40:56.029Z,18.21
2023-05-24T17:43:32.117Z,18.20
2023-05-24T17:46:07.723Z,18.18
2023-05-24T17:48:41.195Z,18.17
2023-05-24T17:51:14.623Z,18.16
2023-05-24T17:53:47.974Z,18.14
2023-05-24T17:56:22.474Z,18.14
2023-05-24T17:58:55.708Z,18.10
2023-05-24T18:01:30.196Z,18.09
2023-05-24T18:04:03.260Z,18.07
2023-05-24T18:06:37.852Z,18.06
2023-05-24T18:09:11.479Z,18.05
2023-05-24T18:11:44.197Z,18.05
2023-05-24T18:14:17.209Z,18.04
2023-05-24T18:16:51.506Z,18.03
2023-05-24T18:19:26.193Z,18.00
2023-05-24T18:21:59.215Z,17.98
2023-05-24T18:24:31.932Z,17.97
2023-05-24T18:27:05.227Z,17.95
2023-05-24T18:29:38.637Z,17.91
2023-05-24T18:32:12.825Z,17.88
2023-05-24T18:34:45.746Z,17.82
2023-05-24T18:37:19.863Z,17.75
2023-05-24T18:39:52.609Z,17.64
2023-05-24T18:42:25.468Z,17.53
2023-05-24T18:44:58.232Z,17.41
2023-05-24T18:47:32.363Z,17.27
2023-05-24T18:50:05.265Z,17.16
2023-05-24T18:52:37.960Z,17.06
2023-05-24T18:55:11.573Z,16.98
2023-05-24T18:57:44.298Z,16.90
2023-05-24T19:00:19.332Z,16.86
2023-05-24T19:02:55.479Z,16.82
2023-05-24T19:05:28.382Z,16.78
2023-05-24T19:08:01.170Z,16.76
2023-05-24T19:10:33.918Z,16.75
2023-05-24T19:13:07.369Z,16.72
2023-05-24T19:15:40.045Z,16.71
2023-05-24T19:18:14.106Z,16.71
2023-05-24T19:20:46.801Z,16.68
2023-05-24T19:23:19.671Z,16.67
2023-05-24T19:25:52.557Z,16.66
2023-05-24T19:28:25.370Z,16.63
2023-05-24T19:31:01.207Z,16.60
2023-05-24T19:33:40.494Z,16.56
2023-05-24T19:36:20.022Z,16.53
2023-05-24T19:38:53.390Z,16.49
2023-05-24T19:41:26.843Z,16.44
2023-05-24T19:43:59.633Z,16.41
2023-05-24T19:46:32.691Z,16.35
2023-05-24T19:49:07.253Z,16.34
2023-05-24T19:51:40.047Z,16.30
2023-05-24T19:54:13.675Z,16.27
2023-05-24T19:56:50.206Z,16.23
2023-05-24T19:59:22.976Z,16.19
2023-05-24T20:01:55.703Z,16.18
2023-05-24T20:04:30.040Z,16.14
2023-05-24T20:07:02.860Z,16.13
2023-05-24T20:09:35.804Z,16.11
2023-05-24T20:12:08.902Z,16.09
2023-05-24T20:14:41.953Z,16.08
2023-05-24T20:17:14.658Z,16.05
2023-05-24T20:19:49.547Z,16.03
2023-05-24T20:22:22.365Z,16.03
2023-05-24T20:24:55.061Z,16.01
2023-05-24T20:27:27.754Z,16.00
2023-05-24T20:30:00.503Z,15.99
2023-05-24T20:32:33.223Z,15.99
2023-05-24T20:35:08.221Z,16.02
2023-05-24T20:37:42.013Z,16.01
2023-05-24T20:40:19.266Z,16.03
2023-05-24T20:42:52.150Z,16.06
2023-05-24T20:45:25.004Z,16.08
2023-05-24T20:47:58.920Z,16.08
2023-05-24T20:50:33.238Z,16.09
2023-05-24T20:53:05.977Z,16.10
2023-05-24T20:55:38.746Z,16.13
2023-05-24T20:58:11.557Z,16.13
2023-05-24T21:00:44.342Z,16.14
2023-05-24T21:03:17.160Z,16.15
2023-05-24T21:05:51.698Z,16.19
2023-05-24T21:08:24.348Z,16.20
2023-05-24T21:10:57.123Z,16.22
2023-05-24T21:13:30.364Z,16.27
2023-05-24T21:16:03.311Z,16.25
2023-05-24T21:18:36.073Z,16.27
2023-05-24T21:21:11.097Z,16.29
2023-05-24T21:23:43.820Z,16.28
2023-05-24T21:26:17.037Z,16.28
2023-05-24T21:28:49.767Z,16.27
2023-05-24T21:31:23.241Z,16.26
2023-05-24T21:33:56.090Z,16.25
2023-05-24T21:36:30.172Z,16.25
2023-05-24T21:39:07.567Z,16.23
2023-05-24T21:41:40.309Z,16.23
2023-05-24T21:44:13.017Z,16.23
2023-05-24T21:46:45.742Z,16.25
2023-05-24T21:49:19.019Z,16.26
2023-05-24T21:51:53.147Z,16.26
2023-05-24T21:54:25.886Z,16.26
2023-05-24T21:56:58.624Z,16.26
2023-05-24T21:59:31.393Z,16.25
2023-05-24T22:02:04.162Z,16.25
2023-05-24T22:04:36.924Z,16.23
2023-05-24T22:07:11.075Z,16.22
2023-05-24T22:09:43.792Z,16.21
2023-05-24T22:12:16.572Z,16.21
2023-05-24T22:14:49.356Z,16.20
2023-05-24T22:17:23.140Z,16.21
2023-05-24T22:19:56.141Z,16.18
2023-05-24T22:22:30.252Z,16.18
2023-05-24T22:25:03.038Z,16.18
2023-05-24T22:27:37.088Z,16.18
2023-05-24T22:30:10.100Z,16.18
2023-05-24T22:32:43.073Z,16.16
2023-05-24T22:35:15.979Z,16.16
2023-05-24T22:37:50.092Z,16.15
2023-05-24T22:40:22.879Z,16.14
2023-05-24T22:42:55.643Z,16.12
2023-05-24T22:45:28.437Z,16.12
2023-05-24T22:48:01.239Z,16.11
2023-05-24T22:50:33.998Z,16.13
2023-05-24T22:53:09.336Z,16.11
2023-05-24T22:55:42.195Z,16.11
2023-05-24T22:58:15.651Z,16.11
2023-05-24T23:00:48.405Z,16.11
2023-05-24T23:03:22.003Z,16.11
2023-05-24T23:05:54.747Z,16.10
2023-05-24T23:08:28.883Z,16.13
2023-05-24T23:11:01.606Z,16.12
2023-05-24T23:13:35.960Z,16.11
2023-05-24T23:16:09.688Z,16.12
2023-05-24T23:18:43.126Z,16.11
2023-05-24T23:21:16.782Z,16.12
2023-05-24T23:23:50.938Z,16.12
2023-05-24T23:26:23.655Z,16.14
2023-05-24T23:28:56.791Z,16.13
2023-05-24T23:31:29.577Z,16.13
2023-05-24T23:34:02.534Z,16.13
2023-05-24T23:36:35.227Z,16.11
2023-05-24T23:39:11.050Z,16.12
2023-05-24T23:41:43.886Z,16.14
2023-05-24T23:44:16.632Z,16.14
2023-05-24T23:46:49.395Z,16.12
2023-05-24T23:49:22.457Z,16.11
2023-05-24T23:51:55.145Z,16.12
2023-05-24T23:54:29.407Z,16.11
2023-05-24T23:57:03.964Z,16.12
2023-05-24T23:59:36.765Z,16.10
